Historyczne dane pomiarowe

Dodano dane terminowe – wersja testowa.

Dane z okresu 1951-2019

Wersja bazy: 1.34 [2019-03-16, lista zmian], aktualizacja planowana na 2019-04-15

Dane meteo z obszaru Polski uzyskane na podstawie danych udostępnionych przez Instytut Meteorologii i Gospodarki Wodnej – Państwowy Instytut Badawczy.

 

Wybierz Datę:    

       

TemperaturaWilgotnośćWiatrCiśnienieOpadyŚniegCzas trwania zjawisk
 Stacja t tx tn tng RH VA  wxwx mslp ppp RRR   cm mm wxwxwxwxwxwxwx
1999-08-14 16.9 20.6 14.6- 76.8- 3.0 3.3---- 0.0------------
1999-08-13 15.0 16.5 13.6- 92.5- 7.7 7.0---- 62.2------------
1999-08-12 16.2 21.3 12.3- 93.8- 6.0 3.0---- 16.8------------
1999-08-11 17.4 20.6 15.1- 97.3- 7.0 2.3---- 6.7------------
1999-08-10 19.6 23.1 15.9- 81.5- 4.3 2.3---- 0.2------------
1999-08-09 20.8 25.6 18.3- 84.5- 3.3 3.3---- 0.5------------
1999-08-08 17.9 19.4 16.1- 90.3- 5.7 5.0---- 5.9------------
1999-08-07 19.7 23.5 16.2- 87.5- 1.7 4.3---- 1.4------------
1999-08-06 20.6 24.7 16.7- 66.3- 2.0 2.7---- 0.0------------
1999-08-05 19.7 24.3 13.5- 75.3- 1.3 1.7---- 0.0------------
1999-08-04 19.8 23.9 14.5- 88.3- 0.7 2.3---- 0.0------------
1999-08-03 19.2 24.3 13.6- 84.5- 0.7 2.0---- 0.0------------
1999-08-02 20.2 23.5 16.4- 85.5- 0.0 2.0---- 0.0------------
1999-08-01 21.2 24.5 17.1- 75.8- 0.0 1.0---- 0.0------------
1999-07-31 20.4 24.0 15.5- 89.3- 1.0 2.0---- 0.0------------
1999-07-30 19.0 23.3 13.1- 87.5- 0.3 2.0---- 0.0------------
1999-07-29 19.0 22.0 14.5- 80.0- 0.0 2.7---- 0.0------------
1999-07-28 19.3 22.6 15.3- 80.5- 0.7 4.7---- 0.0------------
1999-07-27 16.5 21.6 10.1- 74.5- 1.3 2.3---- 0.0------------
1999-07-26 17.6 20.6 15.8- 76.3- 2.0 5.0---- 0.0------------
1999-07-25 19.0 22.3 15.3- 79.5- 3.0 5.0---- 0.0------------
1999-07-24 17.4 21.1 13.7- 81.8- 5.0 5.7---- 0.0------------
1999-07-23 17.2 20.7 13.2- 78.3- 3.7 6.3---- 0.0------------
1999-07-22 17.1 20.6 13.8- 66.8- 4.7 6.3---- 0.2------------
1999-07-21 20.9 25.5 16.7- 87.0- 3.3 3.7---- 35.4------------
1999-07-20 22.0 28.3 16.8- 66.8- 2.7 6.0---- 0.0------------
1999-07-19 19.2 22.1 15.7- 77.8- 1.7 2.0---- 0.0------------
1999-07-18 18.7 22.0 15.1- 78.0- 3.7 2.3---- 0.0------------
1999-07-17 16.6 20.7 12.1- 79.3- 5.3 3.7---- 0.4------------
1999-07-16 16.1 19.5 11.9- 72.8- 3.7 7.0---- 0.0------------
1999-07-15 17.4 19.6 16.3- 79.0- 5.7 7.0---- 0.0------------
1999-07-14 20.7 26.7 17.5- 80.3- 5.3 5.7---- 0.5------------
1999-07-13 22.1 24.4 18.9- 72.0- 5.0 5.0---- 0.0------------
1999-07-12 21.1 24.0 17.3- 77.5- 2.3 3.7---- 0.0------------
1999-07-11 19.5 22.5 14.5- 77.8- 0.0 3.7---- 0.0------------
1999-07-10 18.4 21.6 14.7- 78.3- 0.0 3.7---- 0.0------------
1999-07-09 17.6 20.7 14.5- 69.5- 1.3 7.0---- 0.0------------
1999-07-08 18.4 21.6 16.1- 86.3- 5.3 4.7---- 0.0------------
1999-07-07 17.4 19.9 15.0- 84.8- 5.3 5.7---- 0.1------------
1999-07-06 20.9 28.4 16.9- 84.8- 4.3 5.7---- 4.8------------
1999-07-05 23.6 29.8 15.3- 70.3- 2.0 4.7---- 0.0------------
1999-07-04 19.7 24.0 15.9- 84.8- 5.0 4.3---- 0.0------------
1999-07-03 17.3 19.6 14.0- 81.5- 3.0 4.3---- 0.3------------
1999-07-02 16.8 19.8 13.8- 83.0- 4.3 2.3---- 0.0------------
1999-07-01 18.8 21.3 16.8- 83.0- 5.7 2.7---- 2.7------------
1999-06-30 19.7 24.2 14.6- 68.3- 3.0 4.3---- 0.0------------
1999-06-29 16.7 19.6 13.7- 80.3- 2.3 3.0---- 0.0------------
1999-06-28 18.5 22.3 15.6- 77.5- 2.3 5.7---- 5.8------------
1999-06-27 19.4 24.9 13.9- 70.5- 3.7 7.0---- 0.0------------
1999-06-26 13.3 17.1 8.8- 75.3- 4.7 3.0---- 3.6------------
1999-06-25 14.1 16.7 10.0- 70.5- 4.7 1.0---- 0.0------------
1999-06-24 13.6 16.7 10.4- 85.5- 4.3 2.0---- 0.0------------
1999-06-23 12.3 14.5 10.1- 88.5- 7.0 7.7---- 0.8------------
1999-06-22 13.4 14.8 12.1- 76.5- 7.3 7.7---- 15.1------------
1999-06-21 16.0 20.8 13.4- 81.5- 6.7 6.0---- 1.0------------
1999-06-20 17.9 23.0 12.7- 75.3- 5.7 3.3---- 0.0------------
1999-06-19 17.0 20.8 14.1- 92.8- 6.3 4.7---- 0.0------------
1999-06-18 16.5 21.1 12.3- 82.3- 3.0 2.3---- 1.6------------
1999-06-17 15.7 19.0 10.9- 78.5- 3.0 2.7---- 0.0------------
1999-06-16 15.2 18.0 10.5- 85.3- 1.0 3.3---- 0.0------------
384.4 ms

 

Źródłem pochodzenia danych jest Instytut Meteorologii i Gospodarki Wodnej – Państwowy Instytut Badawczy. Dane Instytutu Meteorologii i Gospodarki Wodnej – Państwowego Instytutu Badawczego zostały przetworzone.

Dane źródłowe można odnaleźć na stronie https://dane.imgw.pl